Flight Track Log - Related Links

Times and Time Zones

All times are in EDT time to prevent confusion due to time zone crossing. See the EJA941 flight status page for this flight to view local times or setup timezone preferences in your user account.

Time Position Orientation Groundspeed Altitude Reporting Facility
EDT Latitude Longitude Course Direction KTS MPH feet Rate Location/Type
Mon 10:23:02 PM 46.7956 -92.2853 145° Southeast 257 296 7,300  Level Minneapolis Center
Mon 10:24:04 PM 46.7436 -92.1975 131° Southeast 304 350 10,400 2,927 Climbing Minneapolis Center
Mon 10:25:05 PM 46.7058 -92.0522 111° Southeast 319 367 13,300 2,213 Climbing Minneapolis Center
Mon 10:26:06 PM 46.6133 -91.9742 150° Southeast 375 432 14,900 1,574 Climbing Minneapolis Center
Mon 10:27:00 PM 46.3758 -91.7433 126° Southeast  Level Estimated
Mon 10:27:07 PM 46.5189 -91.8817 146° Southeast 408 470 16,500  Level Minneapolis Center
Mon 10:28:00 PM 46.2823 -91.6542 145° Southeast  Level Estimated
Mon 10:28:09 PM 46.4267 -91.7706 140° Southeast 428 493 18,100  Level Minneapolis Center
Mon 10:29:10 PM 46.3264 -91.6594 143° Southeast 449 517 19,800 1,770 Climbing Minneapolis Center
Mon 10:30:11 PM 46.2186 -91.5392 142° Southeast 465 535 21,700 1,820 Climbing Minneapolis Center
Mon 10:31:12 PM 46.1172 -91.4236 142° Southeast 465 535 23,500 1,756 Climbing Minneapolis Center
Mon 10:32:14 PM 46.0117 -91.3050 142° Southeast 475 547 25,300 1,756 Climbing Minneapolis Center
Mon 10:33:15 PM 45.9006 -91.1839 143° Southeast 491 565 27,100 1,820 Climbing Minneapolis Center
Mon 10:34:16 PM 45.7872 -91.0606 143° Southeast 509 586 29,000 1,770 Climbing Minneapolis Center
Mon 10:35:17 PM 45.6750 -90.9378 143° Southeast 510 587 30,700 1,869 Climbing Minneapolis Center
Mon 10:36:18 PM 45.5633 -90.8125 142° Southeast 511 588 32,800 2,066 Climbing Minneapolis Center
Mon 10:37:19 PM 45.4258 -90.6636 143° Southeast 518 596 34,900 1,073 Climbing Minneapolis Center
Mon 10:38:21 PM 45.3058 -90.5344 143° Southeast 532 612 35,000 49 Climbing Minneapolis Center
Mon 10:39:22 PM 45.1786 -90.3981 143° Southeast 560 644 35,000  Level Minneapolis Center
Mon 10:40:23 PM 45.0511 -90.2614 143° Southeast 573 659 35,000  Level Minneapolis Center
Mon 10:41:24 PM 44.9239 -90.1264 143° Southeast 576 663 35,000  Level Minneapolis Center
Mon 10:42:26 PM 44.7919 -89.9869 143° Southeast 577 664 35,000  Level Minneapolis Center
Mon 10:43:27 PM 44.6642 -89.8522 143° Southeast 577 664 35,000  Level Minneapolis Center
Mon 10:44:28 PM 44.5356 -89.7175 143° Southeast 577 664 35,000 -344 Level Minneapolis Center
Mon 10:45:29 PM 44.4228 -89.5656 136° Southeast 581 669 34,300 -1,131 Descending Minneapolis Center
Mon 10:46:30 PM 44.3289 -89.3942 127° Southeast 562 647 32,700 -2,390 Descending Minneapolis Center
Mon 10:47:32 PM 44.2256 -89.1742 123° Southeast 563 648 29,400 -2,829 Descending Minneapolis Center
Mon 10:48:33 PM 44.1106 -89.0325 138° Southeast 556 640 26,900 -2,368 Descending Minneapolis Center
Mon 10:49:26 PM 44.0075 -88.9506 150° Southeast 542 624 24,900 -2,296 Descending Chicago Center
Mon 10:50:28 PM 43.8792 -88.8542 152° Southeast 530 610 22,500 -2,293 Descending Chicago Center
Mon 10:51:29 PM 43.7544 -88.7589 151° Southeast 517 595 20,200 -2,262 Descending Chicago Center
Mon 10:52:30 PM 43.6322 -88.6678 152° Southeast 506 582 17,900 -2,410 Descending Chicago Center
Mon 10:53:31 PM 43.4936 -88.5633 151° Southeast 482 555 15,300 -2,066 Descending Chicago Center
Mon 10:54:32 PM 43.3994 -88.4931 152° Southeast 467 537 13,700 -1,672 Descending Chicago Center
Mon 10:55:33 PM 43.2875 -88.3978 148° Southeast 445 512 11,900 -1,770 Descending Chicago Center
Mon 10:56:34 PM 43.2000 -88.2892 138° Southeast 428 493 10,100 -927 Descending Chicago Center
Mon 10:57:36 PM 43.1203 -88.1883 137° Southeast 400 460 10,000 -49 Descending Chicago Center
Mon 10:58:37 PM 43.0433 -88.0925 138° Southeast 377 434 10,000  Level Chicago Center
Mon 10:59:38 PM 42.9561 -87.9797 137° Southeast 364 419 10,000 -492 Level Chicago Center
Mon 11:00:39 PM 42.8911 -87.8956 136° Southeast 324 373 9,000 -1,426 Descending Chicago Center
Mon 11:01:40 PM 42.8169 -87.8503 156° South 301 346 7,100 -1,869 Descending Chicago Center
Mon 11:02:41 PM 42.7414 -87.8231 165° South 283 326 5,200 -1,525 Descending Chicago Center
Mon 11:03:42 PM 42.6703 -87.8142 175° South 266 306 4,000 -590 Descending Chicago Center
Mon 11:04:43 PM 42.5972 -87.8061 175° South 261 300 4,000  Level Chicago Center
Mon 11:05:44 PM 42.5217 -87.7986 176° South 271 312 4,000  Level Chicago Center
Mon 11:06:45 PM 42.4478 -87.7997 181° South 267 307 4,000 836 Level Chicago Center
Mon 11:07:46 PM 42.3803 -87.8417 205° Southwest 263 303 5,700 984 Climbing Chicago Center
Mon 11:08:47 PM 42.3111 -87.8728 198° South 268 308 6,000 149 Climbing Chicago Center
Mon 11:09:47 PM 42.2381 -87.8936 192° South 269 310 6,000  Level Chicago Center
Mon 11:10:49 PM 42.1503 -87.9136 190° South 269 310 6,000  Level Chicago Center
Mon 11:11:43 PM 42.0833 -87.9167 182° South 266 306 6,000  Level Chicago TRACON
Mon 11:12:49 PM 42.0000 -87.9167 180° South 225 259 6,000 -143 Level Chicago TRACON
Mon 11:13:49 PM 41.9500 -87.9167 180° South 222 255 5,700 -800 Descending Chicago TRACON
Mon 11:14:49 PM 41.9000 -87.9167 180° South 202 232 4,400 -1,579 Descending Chicago TRACON
Mon 11:15:43 PM 41.8667 -87.8667 132° Southeast 173 199 2,700 -1,250 Descending Chicago TRACON
Mon 11:16:49 PM 41.8333 -87.8167 132° Southeast 140 161 1,900 -682 Descending Chicago TRACON
Mon 11:17:55 PM 41.8103 -87.7872 136° Southeast 148 170 1,200 -520 Descending Chicago Center
Mon 11:18:56 PM 41.7822 -87.7497 135° Southeast 141 162 800 -393 Descending Chicago Center

Login

Don't have an account? Register now (free) for customized features, flight alerts, and more!